Time;durP1;ratioP1;P1;durP2;ratioP2;P2;SDS_P1;SDS_P2;PMS_P1;PMS_P2;Temp;Humidity;BMP_temperature;BMP_pressure;BME280_temperature;BME280_humidity;BME280_pressure;Samples;Min_cycle;Max_cycle;Signal;HPM_P1;HPM_P2
2021/03/27 00:00:40;;;;;;;6.30;4.63;;;10.00;62.90;;;;;;4949443;28;20204;-71
2021/03/27 00:03:31;;;;;;;5.80;4.03;;;10.00;63.40;;;;;;4935901;28;20666;-72
2021/03/27 00:06:06;;;;;;;5.13;3.97;;;9.90;64.40;;;;;;4939711;28;20227;-72
2021/03/27 00:08:39;;;;;;;4.80;4.07;;;9.90;64.40;;;;;;4944424;28;20239;-71
2021/03/27 00:11:13;;;;;;;4.73;4.03;;;9.90;64.40;;;;;;4929127;28;20228;-72
2021/03/27 00:14:01;;;;;;;4.13;3.50;;;9.80;64.30;;;;;;4946077;28;20262;-72
2021/03/27 00:16:50;;;;;;;4.40;3.83;;;9.90;64.80;;;;;;4932924;29;20603;-72
2021/03/27 00:19:28;;;;;;;4.47;3.43;;;9.70;65.10;;;;;;4945079;28;20244;-71
2021/03/27 00:22:03;;;;;;;5.53;3.97;;;9.70;65.50;;;;;;4941046;28;20233;-74
2021/03/27 00:24:52;;;;;;;4.93;4.10;;;9.80;65.10;;;;;;4917410;28;20197;-73
2021/03/27 00:27:25;;;;;;;5.03;4.10;;;9.80;65.00;;;;;;4946309;28;20189;-75
2021/03/27 00:29:57;;;;;;;6.03;3.93;;;9.90;65.20;;;;;;4926472;28;20549;-73
2021/03/27 00:32:32;;;;;;;6.53;4.23;;;9.80;65.50;;;;;;4945879;28;20229;-74
2021/03/27 00:35:05;;;;;;;4.30;3.73;;;9.90;65.00;;;;;;4947385;28;20232;-73
2021/03/27 00:37:32;;;;;;;4.60;3.93;;;9.90;65.10;;;;;;4949053;28;20256;-72
2021/03/27 00:40:12;;;;;;;6.97;4.13;;;9.80;66.00;;;;;;4921673;28;20375;-74
2021/03/27 00:42:44;;;;;;;7.47;4.70;;;9.80;66.20;;;;;;4923439;28;20240;-72
2021/03/27 00:45:17;;;;;;;7.23;4.90;;;9.90;65.80;;;;;;4932369;28;20320;-75
2021/03/27 00:47:50;;;;;;;7.10;4.80;;;9.80;66.00;;;;;;4940934;28;20681;-70
2021/03/27 00:50:19;;;;;;;5.93;5.20;;;9.80;66.20;;;;;;4921447;28;20234;-73
2021/03/27 00:52:53;;;;;;;7.20;5.77;;;9.80;66.70;;;;;;4911440;28;20230;-75
2021/03/27 00:55:36;;;;;;;7.00;4.40;;;9.90;65.50;;;;;;4935796;28;20275;-73
2021/03/27 00:58:12;;;;;;;8.00;4.83;;;9.90;66.10;;;;;;4943854;28;20233;-72
2021/03/27 01:00:47;;;;;;;8.50;4.77;;;9.90;66.40;;;;;;4917659;28;20247;-71
2021/03/27 01:03:22;;;;;;;6.63;4.57;;;9.90;66.20;;;;;;4943741;28;20262;-71
2021/03/27 01:05:50;;;;;;;5.20;4.20;;;10.00;65.30;;;;;;4930380;28;20721;-71
2021/03/27 01:08:18;;;;;;;6.57;4.50;;;9.90;66.10;;;;;;4943380;28;20221;-71
2021/03/27 01:10:52;;;;;;;5.53;4.13;;;9.80;66.40;;;;;;4947411;28;20676;-71
2021/03/27 01:13:38;;;;;;;7.03;4.57;;;9.90;66.50;;;;;;4941090;28;20233;-71
2021/03/27 01:16:11;;;;;;;4.77;3.57;;;9.90;66.40;;;;;;4947568;28;20692;-73
2021/03/27 01:18:43;;;;;;;8.37;4.73;;;9.90;66.00;;;;;;4930592;28;20233;-72
2021/03/27 01:21:16;;;;;;;8.53;4.67;;;10.00;64.90;;;;;;4921911;28;20192;-72
2021/03/27 01:23:43;;;;;;;6.77;4.40;;;10.10;64.30;;;;;;4941794;28;20254;-72
2021/03/27 01:26:20;;;;;;;6.67;4.27;;;10.20;64.70;;;;;;4942714;28;20601;-72
2021/03/27 01:28:56;;;;;;;5.23;4.00;;;10.10;64.70;;;;;;4941131;28;20261;-72
2021/03/27 01:31:26;;;;;;;4.97;4.10;;;10.10;65.10;;;;;;4939434;28;20226;-72
2021/03/27 01:33:55;;;;;;;6.10;4.27;;;10.20;65.50;;;;;;4928593;29;20259;-73
2021/03/27 01:36:38;;;;;;;5.90;3.77;;;10.10;65.40;;;;;;4927613;28;20213;-71
2021/03/27 01:39:20;;;;;;;6.37;4.40;;;10.10;65.70;;;;;;4949241;28;20267;-72
2021/03/27 01:42:04;;;;;;;7.03;4.10;;;10.10;65.70;;;;;;4927809;28;20225;-71
2021/03/27 01:45:08;;;;;;;7.00;4.60;;;10.20;65.50;;;;;;4926143;29;20277;-73
2021/03/27 01:47:53;;;;;;;7.20;4.70;;;10.20;65.90;;;;;;4940236;28;20575;-72
2021/03/27 01:50:37;;;;;;;5.63;3.63;;;10.20;66.40;;;;;;4941839;28;20242;-73
2021/03/27 01:53:20;;;;;;;6.67;4.40;;;10.30;66.60;;;;;;4944427;28;20237;-73
2021/03/27 01:56:19;;;;;;;7.07;4.37;;;10.30;67.40;;;;;;4945120;28;20712;-71
2021/03/27 01:59:11;;;;;;;5.23;4.00;;;10.30;69.70;;;;;;4942917;28;20276;-71
2021/03/27 02:01:51;;;;;;;4.27;3.07;;;10.20;71.20;;;;;;4938522;28;20222;-71
2021/03/27 02:04:28;;;;;;;4.97;3.90;;;10.20;73.50;;;;;;4953910;28;20229;-71
2021/03/27 02:07:04;;;;;;;5.00;4.27;;;10.10;73.70;;;;;;4924678;28;20231;-71
2021/03/27 02:09:41;;;;;;;5.60;3.80;;;10.10;73.20;;;;;;4952591;28;20198;-71
2021/03/27 02:12:30;;;;;;;5.53;3.80;;;10.00;75.20;;;;;;4927885;28;20190;-71
2021/03/27 02:15:06;;;;;;;4.83;3.67;;;9.90;76.00;;;;;;4941181;28;20312;-71
2021/03/27 02:17:57;;;;;;;5.33;3.57;;;10.00;73.90;;;;;;4949429;28;20229;-72
2021/03/27 02:20:25;;;;;;;4.73;3.83;;;10.00;74.10;;;;;;4922204;28;20329;-70
2021/03/27 02:23:13;;;;;;;4.33;3.67;;;10.00;74.20;;;;;;4951584;28;20266;-71
2021/03/27 02:26:00;;;;;;;3.50;3.20;;;10.00;73.20;;;;;;4929002;28;20240;-71
2021/03/27 02:28:50;;;;;;;4.63;3.07;;;10.00;73.70;;;;;;4932613;29;20225;-71
2021/03/27 02:31:25;;;;;;;4.57;3.07;;;10.10;73.40;;;;;;4942808;28;20288;-72
2021/03/27 02:33:57;;;;;;;3.70;3.07;;;10.10;73.90;;;;;;4928959;28;20244;-71
2021/03/27 02:36:48;;;;;;;6.90;3.30;;;10.20;72.20;;;;;;4948263;28;20228;-73
2021/03/27 02:39:27;;;;;;;3.27;2.97;;;10.30;72.40;;;;;;4946114;28;20219;-73
2021/03/27 02:42:05;;;;;;;3.63;3.00;;;10.40;72.40;;;;;;4952477;28;20234;-71
2021/03/27 02:44:39;;;;;;;2.33;2.13;;;10.50;72.50;;;;;;4944867;28;20784;-71
2021/03/27 02:47:28;;;;;;;4.97;2.83;;;10.60;70.20;;;;;;4943416;28;20308;-71
2021/03/27 02:50:10;;;;;;;1.57;1.47;;;10.80;70.10;;;;;;4944738;28;20226;-71
2021/03/27 02:53:00;;;;;;;7.37;3.13;;;10.80;68.70;;;;;;4946384;28;20232;-72
2021/03/27 02:56:04;;;;;;;4.63;2.73;;;11.20;66.90;;;;;;4924200;28;20596;-72
2021/03/27 02:58:36;;;;;;;6.03;3.33;;;11.10;67.80;;;;;;4950449;28;20271;-72
2021/03/27 03:01:15;;;;;;;5.07;3.37;;;11.10;68.40;;;;;;4942120;28;20276;-71
2021/03/27 03:03:46;;;;;;;4.23;3.00;;;11.00;67.80;;;;;;4943054;28;20260;-71
2021/03/27 03:06:37;;;;;;;1.47;1.43;;;11.00;68.40;;;;;;4928621;28;20668;-71
2021/03/27 03:09:02;;;;;;;4.83;2.47;;;11.00;68.10;;;;;;4947295;28;20225;-72
2021/03/27 03:11:41;;;;;;;2.50;2.30;;;10.80;66.00;;;;;;4952747;28;20234;-71
2021/03/27 03:14:28;;;;;;;1.63;1.53;;;10.80;67.40;;;;;;4943520;28;20227;-72
2021/03/27 03:17:03;;;;;;;2.13;2.03;;;10.60;67.40;;;;;;4944461;28;20307;-72
2021/03/27 03:19:42;;;;;;;2.00;1.80;;;10.50;67.20;;;;;;4939044;28;20245;-72
2021/03/27 03:22:22;;;;;;;2.90;2.20;;;10.50;67.90;;;;;;4945254;28;20245;-72
2021/03/27 03:24:53;;;;;;;3.70;1.70;;;10.40;65.80;;;;;;4931512;28;20314;-73
2021/03/27 03:27:29;;;;;;;2.03;1.83;;;10.30;65.10;;;;;;4942122;28;20677;-72
2021/03/27 03:30:12;;;;;;;1.70;1.60;;;10.40;66.60;;;;;;4929924;29;20602;-73
2021/03/27 03:32:40;;;;;;;0.80;0.80;;;10.20;67.50;;;;;;4946753;28;20599;-72
2021/03/27 03:35:43;;;;;;;0.70;0.70;;;9.80;61.20;;;;;;4939297;28;20238;-71
2021/03/27 03:38:38;;;;;;;0.60;0.60;;;9.50;61.20;;;;;;4940311;28;20300;-71
2021/03/27 03:41:04;;;;;;;0.60;0.60;;;9.30;60.00;;;;;;4929694;28;20221;-71
2021/03/27 03:43:59;;;;;;;0.50;0.50;;;9.10;60.10;;;;;;4929985;28;20233;-73
2021/03/27 03:46:37;;;;;;;0.57;0.57;;;8.90;60.00;;;;;;4901684;28;20720;-73
2021/03/27 03:49:31;;;;;;;0.50;0.50;;;8.80;60.90;;;;;;4943647;28;20636;-73
2021/03/27 03:52:18;;;;;;;0.40;0.40;;;8.80;61.90;;;;;;4930098;29;20326;-72
2021/03/27 03:55:12;;;;;;;1.03;0.80;;;8.70;60.30;;;;;;4939606;28;20276;-71
2021/03/27 03:57:51;;;;;;;0.67;0.67;;;8.70;59.90;;;;;;4949860;28;20194;-71
2021/03/27 04:00:21;;;;;;;0.70;0.70;;;8.60;59.70;;;;;;4944740;28;20265;-71
2021/03/27 04:03:08;;;;;;;0.50;0.50;;;8.80;59.60;;;;;;4950684;28;20221;-71
2021/03/27 04:05:40;;;;;;;0.40;0.40;;;8.60;59.50;;;;;;4942077;28;20276;-71
2021/03/27 04:08:23;;;;;;;0.30;0.30;;;8.60;59.60;;;;;;4923247;29;20245;-71
2021/03/27 04:10:56;;;;;;;0.80;0.37;;;8.60;59.20;;;;;;4941345;28;20257;-71
2021/03/27 04:13:34;;;;;;;0.40;0.40;;;8.70;58.80;;;;;;4921850;28;20251;-72
2021/03/27 04:16:04;;;;;;;0.53;0.53;;;8.50;58.10;;;;;;4935366;28;20221;-73
2021/03/27 04:18:42;;;;;;;0.60;0.60;;;8.50;57.60;;;;;;4926164;28;20206;-72
2021/03/27 04:21:39;;;;;;;0.43;0.33;;;8.50;57.70;;;;;;4949095;28;20657;-71
2021/03/27 04:24:13;;;;;;;0.70;0.70;;;8.50;58.40;;;;;;4926181;28;20222;-71
2021/03/27 04:26:57;;;;;;;0.47;0.47;;;8.50;57.70;;;;;;4924219;29;20217;-71
2021/03/27 04:29:47;;;;;;;0.50;0.50;;;8.50;57.60;;;;;;4943749;28;20604;-71
2021/03/27 04:32:51;;;;;;;0.50;0.50;;;8.40;57.30;;;;;;4930208;28;20233;-71
2021/03/27 04:35:22;;;;;;;0.50;0.50;;;8.40;57.70;;;;;;4859961;29;20236;-73
2021/03/27 04:38:11;;;;;;;0.47;0.47;;;8.30;57.40;;;;;;4859755;29;20277;-73
2021/03/27 04:41:10;;;;;;;0.47;0.47;;;8.30;57.50;;;;;;4918297;28;20233;-72
2021/03/27 04:43:44;;;;;;;0.40;0.40;;;8.20;58.30;;;;;;4926383;28;20328;-72
2021/03/27 04:46:32;;;;;;;0.60;0.60;;;8.20;58.80;;;;;;4946661;28;20237;-72
2021/03/27 04:49:12;;;;;;;0.50;0.50;;;8.10;59.20;;;;;;4940735;28;20225;-74
2021/03/27 04:51:41;;;;;;;0.50;0.50;;;8.10;59.20;;;;;;4939809;28;20236;-74
2021/03/27 04:54:33;;;;;;;0.50;0.50;;;8.00;58.40;;;;;;4948337;28;20189;-72
2021/03/27 04:57:31;;;;;;;1.43;0.53;;;7.90;57.90;;;;;;4922957;29;20236;-73
2021/03/27 05:00:05;;;;;;;0.67;0.67;;;7.90;58.70;;;;;;4945935;28;20261;-72
2021/03/27 05:02:46;;;;;;;1.83;1.00;;;7.90;59.60;;;;;;4923424;29;20260;-69
2021/03/27 05:05:24;;;;;;;0.40;0.40;;;7.80;57.50;;;;;;4944306;28;20336;-72
2021/03/27 05:08:09;;;;;;;0.63;0.63;;;7.80;57.60;;;;;;4941942;28;20241;-71
2021/03/27 05:10:43;;;;;;;0.67;0.67;;;7.70;57.90;;;;;;4942415;28;20233;-72
2021/03/27 05:13:24;;;;;;;0.60;0.60;;;7.70;58.20;;;;;;4943753;28;20231;-70
2021/03/27 05:15:56;;;;;;;0.60;0.60;;;7.60;58.00;;;;;;4942897;28;20234;-70
2021/03/27 05:18:48;;;;;;;0.60;0.60;;;7.70;58.50;;;;;;4942108;28;20197;-73
2021/03/27 05:21:32;;;;;;;0.90;0.90;;;7.60;59.00;;;;;;4924369;29;20193;-72
2021/03/27 05:24:23;;;;;;;0.83;0.80;;;7.50;59.60;;;;;;4937841;28;20276;-72
2021/03/27 05:26:58;;;;;;;0.67;0.67;;;7.40;60.30;;;;;;4946364;28;20237;-74
2021/03/27 05:29:54;;;;;;;0.87;0.80;;;7.30;60.50;;;;;;4943854;28;20639;-71
2021/03/27 05:32:28;;;;;;;1.33;0.93;;;7.40;60.60;;;;;;4940157;28;20237;-69
2021/03/27 05:35:01;;;;;;;0.57;0.57;;;7.40;60.70;;;;;;4940975;28;20221;-68
2021/03/27 05:37:34;;;;;;;0.60;0.60;;;7.30;61.00;;;;;;4941200;28;20280;-67
2021/03/27 05:40:24;;;;;;;0.50;0.50;;;7.40;60.10;;;;;;4947653;28;20800;-71
2021/03/27 05:43:24;;;;;;;0.70;0.70;;;7.40;59.60;;;;;;4931671;29;20241;-71
2021/03/27 05:46:08;;;;;;;0.80;0.80;;;7.40;59.70;;;;;;4911792;28;20229;-71
2021/03/27 05:48:39;;;;;;;0.50;0.50;;;7.40;59.70;;;;;;4939807;28;20198;-71
2021/03/27 05:51:30;;;;;;;0.50;0.50;;;7.40;60.00;;;;;;4935698;28;20237;-71
2021/03/27 05:54:36;;;;;;;1.10;0.90;;;7.40;60.00;;;;;;4936851;28;20709;-72
2021/03/27 05:57:26;;;;;;;0.40;0.40;;;7.50;59.80;;;;;;4945191;28;20586;-72
2021/03/27 06:00:30;;;;;;;0.70;0.70;;;7.60;60.50;;;;;;4943414;28;20317;-72
2021/03/27 06:02:55;;;;;;;0.73;0.73;;;7.50;60.90;;;;;;4826188;29;20323;-71
2021/03/27 06:05:36;;;;;;;0.60;0.60;;;7.50;61.70;;;;;;4908461;28;20230;-72
2021/03/27 06:08:27;;;;;;;0.77;0.77;;;7.50;62.30;;;;;;4932092;28;20249;-71
2021/03/27 06:11:14;;;;;;;0.63;0.63;;;7.50;61.80;;;;;;4935715;28;20240;-71
2021/03/27 06:14:11;;;;;;;0.77;0.77;;;7.40;62.20;;;;;;4915321;29;20249;-72
2021/03/27 06:16:46;;;;;;;0.70;0.70;;;7.30;60.60;;;;;;4922731;29;20257;-72
2021/03/27 06:19:49;;;;;;;0.70;0.70;;;7.20;61.20;;;;;;4949122;28;20725;-72
2021/03/27 06:22:46;;;;;;;1.67;0.93;;;7.20;59.90;;;;;;4942768;28;20248;-72
2021/03/27 06:25:36;;;;;;;0.87;0.87;;;7.30;60.00;;;;;;4922386;28;20292;-72
2021/03/27 06:28:08;;;;;;;0.60;0.60;;;7.40;58.50;;;;;;4944389;28;20225;-72
2021/03/27 06:31:04;;;;;;;0.67;0.67;;;7.50;58.00;;;;;;4939877;28;20805;-72
2021/03/27 06:33:48;;;;;;;0.80;0.80;;;7.70;58.00;;;;;;4940848;28;20205;-72
2021/03/27 06:36:21;;;;;;;0.67;0.67;;;7.70;57.60;;;;;;4937888;28;20194;-72
2021/03/27 06:39:25;;;;;;;1.63;1.00;;;7.60;57.90;;;;;;4944658;28;20305;-72
2021/03/27 06:42:05;;;;;;;0.70;0.70;;;7.70;58.60;;;;;;4945597;28;20631;-72
2021/03/27 06:44:54;;;;;;;0.60;0.60;;;7.50;58.60;;;;;;4948252;28;20229;-72
2021/03/27 06:47:39;;;;;;;0.60;0.60;;;7.50;58.30;;;;;;4926558;28;20230;-72
2021/03/27 06:50:10;;;;;;;2.00;0.80;;;7.60;58.30;;;;;;4937377;28;20237;-73
2021/03/27 06:52:58;;;;;;;0.83;0.83;;;7.60;58.40;;;;;;4935911;28;20236;-69
2021/03/27 06:55:30;;;;;;;1.97;0.80;;;7.60;56.40;;;;;;4923895;29;20578;-69
2021/03/27 06:58:18;;;;;;;0.57;0.57;;;7.60;56.70;;;;;;4938423;28;20228;-70
2021/03/27 07:01:09;;;;;;;0.90;0.90;;;7.60;55.00;;;;;;4898761;28;20303;-69
2021/03/27 07:03:53;;;;;;;1.67;1.57;;;7.80;54.80;;;;;;4928698;28;20285;-70
2021/03/27 07:06:37;;;;;;;0.80;0.80;;;7.80;54.00;;;;;;4939782;28;20201;-71
2021/03/27 07:09:22;;;;;;;1.70;0.83;;;7.90;53.90;;;;;;4945256;28;20510;-70
2021/03/27 07:12:35;;;;;;;3.40;0.90;;;8.10;54.30;;;;;;4945944;28;20298;-70
2021/03/27 07:15:38;;;;;;;0.60;0.60;;;8.00;54.20;;;;;;4874423;29;20235;-71
2021/03/27 07:18:23;;;;;;;1.00;0.90;;;8.10;53.80;;;;;;4947887;28;20670;-70
2021/03/27 07:21:04;;;;;;;1.33;0.90;;;8.10;53.70;;;;;;4947709;28;20243;-70
2021/03/27 07:23:45;;;;;;;1.00;0.90;;;8.20;54.40;;;;;;4948779;28;20720;-70
2021/03/27 07:26:35;;;;;;;0.67;0.67;;;8.20;52.50;;;;;;4941558;28;20577;-71
2021/03/27 07:29:31;;;;;;;2.00;1.00;;;8.20;52.70;;;;;;4932018;29;20312;-71
2021/03/27 07:32:29;;;;;;;1.33;1.03;;;8.10;51.80;;;;;;4950433;29;20321;-69
2021/03/27 07:35:16;;;;;;;1.20;0.90;;;8.10;50.60;;;;;;4946554;28;20233;-70
2021/03/27 07:37:44;;;;;;;2.97;1.00;;;8.00;50.30;;;;;;4952694;28;20233;-70
2021/03/27 07:40:32;;;;;;;0.60;0.60;;;8.00;50.20;;;;;;4933955;29;20614;-71
2021/03/27 07:43:26;;;;;;;0.50;0.50;;;8.00;49.30;;;;;;4948268;28;20229;-70
2021/03/27 07:46:10;;;;;;;1.20;0.70;;;8.00;49.80;;;;;;4889797;29;20300;-71
2021/03/27 07:48:48;;;;;;;0.63;0.63;;;8.10;49.70;;;;;;4933318;28;20193;-71
2021/03/27 07:51:35;;;;;;;1.97;1.87;;;8.30;49.20;;;;;;4941190;29;20257;-70
2021/03/27 07:54:20;;;;;;;1.10;1.03;;;8.30;48.30;;;;;;4951157;28;20221;-70
2021/03/27 07:57:04;;;;;;;1.10;1.10;;;8.20;47.10;;;;;;4931190;28;20309;-70
2021/03/27 07:59:48;;;;;;;2.30;1.27;;;8.30;47.40;;;;;;4944469;29;20594;-70
2021/03/27 08:02:38;;;;;;;1.13;1.00;;;8.40;47.70;;;;;;4942349;28;20229;-70
2021/03/27 08:05:22;;;;;;;0.73;0.73;;;8.40;46.40;;;;;;4926092;28;20381;-70
2021/03/27 08:08:26;;;;;;;0.77;0.77;;;8.50;46.20;;;;;;4944416;28;20590;-70
2021/03/27 08:11:04;;;;;;;0.93;0.77;;;8.50;45.90;;;;;;4922773;28;20240;-70
2021/03/27 08:13:35;;;;;;;2.33;0.97;;;8.50;45.90;;;;;;4943959;28;20360;-71
2021/03/27 08:16:22;;;;;;;0.83;0.73;;;8.60;46.00;;;;;;4940325;28;20229;-70
2021/03/27 08:18:55;;;;;;;2.17;1.07;;;8.50;46.00;;;;;;4936418;29;20248;-70
2021/03/27 08:21:35;;;;;;;3.10;1.43;;;8.50;46.00;;;;;;4930292;28;20586;-71
2021/03/27 08:24:13;;;;;;;3.40;1.67;;;8.40;46.30;;;;;;4946446;28;20650;-70
2021/03/27 08:26:49;;;;;;;2.63;1.53;;;8.50;45.90;;;;;;4944229;28;20228;-71
2021/03/27 08:29:52;;;;;;;0.73;0.73;;;8.60;46.60;;;;;;4928462;28;20253;-71
2021/03/27 08:32:18;;;;;;;0.80;0.80;;;8.50;46.50;;;;;;4947188;28;20708;-71
2021/03/27 08:35:05;;;;;;;1.80;1.20;;;8.70;46.50;;;;;;4939771;28;20221;-71
2021/03/27 08:38:04;;;;;;;1.60;1.50;;;8.80;46.20;;;;;;4946979;28;20246;-71
2021/03/27 08:41:04;;;;;;;0.80;0.80;;;8.90;46.30;;;;;;4924958;28;20273;-70
2021/03/27 08:44:06;;;;;;;3.00;0.70;;;8.90;46.30;;;;;;4946997;28;20230;-70
2021/03/27 08:47:08;;;;;;;0.60;0.60;;;9.00;46.00;;;;;;4945104;28;20654;-70
2021/03/27 08:49:52;;;;;;;1.47;1.10;;;9.20;45.50;;;;;;4943842;28;20237;-70
2021/03/27 08:52:37;;;;;;;1.20;0.90;;;9.50;45.10;;;;;;4950580;28;20262;-71
2021/03/27 08:55:24;;;;;;;1.40;0.83;;;9.50;43.30;;;;;;4928628;28;20229;-71
2021/03/27 08:57:58;;;;;;;1.33;0.97;;;9.50;43.80;;;;;;4944867;28;20308;-70
2021/03/27 09:00:52;;;;;;;3.27;1.50;;;9.50;43.30;;;;;;4940480;28;20232;-71
2021/03/27 09:03:59;;;;;;;0.87;0.87;;;9.40;43.00;;;;;;4929586;28;20197;-70
2021/03/27 09:06:30;;;;;;;3.67;1.50;;;9.40;43.70;;;;;;4928599;28;20242;-71
2021/03/27 09:09:24;;;;;;;2.17;1.30;;;9.30;44.50;;;;;;4939363;28;20300;-70
2021/03/27 09:12:10;;;;;;;1.30;1.30;;;9.10;45.10;;;;;;4942679;28;20252;-70
2021/03/27 09:15:00;;;;;;;2.20;1.20;;;9.10;45.80;;;;;;4912184;28;20645;-71
2021/03/27 09:18:02;;;;;;;1.53;1.03;;;9.10;46.50;;;;;;4931240;28;20252;-70
2021/03/27 09:21:00;;;;;;;1.00;0.77;;;8.90;46.30;;;;;;4947999;28;20379;-71
2021/03/27 09:23:59;;;;;;;3.00;1.40;;;9.00;47.00;;;;;;4928483;28;20237;-70
2021/03/27 09:26:49;;;;;;;0.60;0.60;;;9.20;46.90;;;;;;4947540;28;20227;-70
2021/03/27 09:29:41;;;;;;;2.93;1.37;;;9.20;46.50;;;;;;4943782;28;20718;-70
2021/03/27 09:32:18;;;;;;;1.40;1.20;;;9.40;46.70;;;;;;4937565;28;20617;-71
2021/03/27 09:34:59;;;;;;;2.23;1.00;;;9.50;46.80;;;;;;4950754;28;20577;-71
2021/03/27 09:37:52;;;;;;;1.47;1.37;;;9.60;46.90;;;;;;4944178;28;20261;-70
2021/03/27 09:40:39;;;;;;;3.43;1.30;;;9.40;46.70;;;;;;4937922;28;20820;-70
2021/03/27 09:43:38;;;;;;;2.77;1.30;;;9.30;46.60;;;;;;4950464;28;20229;-70
2021/03/27 09:46:15;;;;;;;0.87;0.87;;;9.50;46.80;;;;;;4941487;28;20751;-65
2021/03/27 09:48:50;;;;;;;1.17;1.07;;;9.60;46.90;;;;;;4944449;28;20233;-64
2021/03/27 09:51:47;;;;;;;1.60;1.50;;;9.80;45.10;;;;;;4947051;28;20265;-67
2021/03/27 09:54:33;;;;;;;4.27;1.33;;;9.90;45.50;;;;;;4944161;28;21158;-70
2021/03/27 09:57:14;;;;;;;0.80;0.80;;;9.80;43.20;;;;;;4930998;28;20234;-70
2021/03/27 09:59:46;;;;;;;1.00;0.93;;;10.10;42.60;;;;;;4949819;28;20239;-70
2021/03/27 10:02:18;;;;;;;1.50;1.00;;;10.40;42.20;;;;;;4941947;28;20674;-70
2021/03/27 10:04:54;;;;;;;2.00;0.67;;;10.20;42.30;;;;;;4950912;28;20225;-70
2021/03/27 10:07:25;;;;;;;2.20;1.00;;;10.50;42.90;;;;;;4933011;29;20298;-70
2021/03/27 10:10:18;;;;;;;1.37;1.23;;;10.50;43.20;;;;;;4948771;28;20305;-70
2021/03/27 10:13:09;;;;;;;0.77;0.77;;;10.20;44.70;;;;;;4946322;28;20245;-69
2021/03/27 10:15:57;;;;;;;0.90;0.90;;;9.90;46.40;;;;;;4930984;28;20712;-70
2021/03/27 10:18:23;;;;;;;1.50;1.00;;;9.70;47.60;;;;;;4933408;28;20697;-73
2021/03/27 10:21:01;;;;;;;1.60;0.90;;;9.70;48.90;;;;;;4934881;29;20244;-69
2021/03/27 10:23:44;;;;;;;1.00;0.60;;;9.30;51.10;;;;;;4946087;28;20241;-69
2021/03/27 10:26:21;;;;;;;2.30;0.50;;;9.30;51.90;;;;;;4950909;28;20240;-65
2021/03/27 10:29:03;;;;;;;2.10;1.13;;;9.30;51.80;;;;;;4926729;28;20221;-70
2021/03/27 10:31:35;;;;;;;0.77;0.70;;;9.40;50.70;;;;;;4933565;28;20583;-69
2021/03/27 10:34:07;;;;;;;1.37;0.80;;;9.50;51.10;;;;;;4936456;29;20226;-70
2021/03/27 10:36:40;;;;;;;1.43;1.33;;;9.40;51.80;;;;;;4935382;28;20190;-69
2021/03/27 10:39:26;;;;;;;0.90;0.90;;;9.20;54.60;;;;;;4952845;29;20312;-70
2021/03/27 10:42:26;;;;;;;2.27;0.90;;;9.40;50.70;;;;;;4952481;29;20231;-69
2021/03/27 10:45:09;;;;;;;0.60;0.60;;;9.50;50.30;;;;;;4928523;29;20234;-70
2021/03/27 10:47:54;;;;;;;6.83;1.10;;;9.60;51.80;;;;;;4952303;28;20231;-69
2021/03/27 10:50:37;;;;;;;2.23;0.90;;;9.80;51.60;;;;;;4953778;28;20226;-70
2021/03/27 10:53:17;;;;;;;0.57;0.57;;;10.00;50.50;;;;;;4920837;29;20224;-70
2021/03/27 10:56:15;;;;;;;1.07;0.60;;;10.40;47.90;;;;;;4974260;23;20235;-70
2021/03/27 10:58:52;;;;;;;0.30;0.30;;;10.30;47.10;;;;;;4983163;28;20248;-70
2021/03/27 11:01:40;;;;;;;1.80;0.70;;;10.10;48.70;;;;;;4961060;28;20263;-70
2021/03/27 11:04:30;;;;;;;1.27;0.60;;;9.90;48.50;;;;;;4967864;28;20227;-69
2021/03/27 11:07:18;;;;;;;0.80;0.80;;;9.80;47.10;;;;;;4966098;28;20712;-69
2021/03/27 11:10:02;;;;;;;1.80;0.80;;;9.80;48.10;;;;;;4980470;28;20228;-70
2021/03/27 11:12:55;;;;;;;0.47;0.47;;;10.10;46.40;;;;;;4964681;28;20196;-67
2021/03/27 11:15:56;;;;;;;1.30;0.90;;;10.50;46.50;;;;;;4968435;28;20273;-65
2021/03/27 11:19:03;;;;;;;2.53;0.90;;;10.60;45.60;;;;;;4950121;28;20650;-65
2021/03/27 11:21:52;;;;;;;1.10;1.00;;;10.30;44.50;;;;;;4939097;28;20208;-67
2021/03/27 11:24:53;;;;;;;0.77;0.70;;;10.60;44.00;;;;;;4969440;28;20199;-69
2021/03/27 11:27:31;;;;;;;4.33;0.67;;;10.60;42.20;;;;;;4899004;28;20212;-64
2021/03/27 11:30:18;;;;;;;2.33;0.77;;;10.70;43.00;;;;;;4989511;28;20184;-69
2021/03/27 11:32:52;;;;;;;1.07;0.67;;;10.90;42.00;;;;;;4961421;28;20235;-68
2021/03/27 11:35:24;;;;;;;0.70;0.53;;;11.10;41.20;;;;;;4972818;23;20246;-69
2021/03/27 11:38:02;;;;;;;0.80;0.60;;;11.10;41.80;;;;;;4968660;23;20338;-67
2021/03/27 11:41:01;;;;;;;0.90;0.83;;;11.10;41.80;;;;;;4980767;28;20270;-66
2021/03/27 11:43:53;;;;;;;0.47;0.47;;;10.40;42.20;;;;;;5002489;28;20278;-67
2021/03/27 11:46:25;;;;;;;0.67;0.67;;;10.20;41.60;;;;;;4989844;28;20256;-66
2021/03/27 11:49:16;;;;;;;1.67;1.37;;;10.30;41.60;;;;;;5002837;28;20256;-67
2021/03/27 11:51:54;;;;;;;1.03;0.70;;;10.40;41.50;;;;;;4965428;28;20238;-67
2021/03/27 11:54:45;;;;;;;1.43;0.63;;;10.30;41.40;;;;;;4978049;28;20512;-67
2021/03/27 11:57:35;;;;;;;1.77;1.13;;;9.90;42.20;;;;;;4985382;28;20251;-67
2021/03/27 12:03:27;;;;;;;0.73;0.70;;;10.10;40.60;;;;;;4985597;28;20706;-66
2021/03/27 12:05:58;;;;;;;0.83;0.53;;;10.20;40.80;;;;;;4970473;28;20236;-66
2021/03/27 12:09:02;;;;;;;2.53;0.77;;;10.40;40.60;;;;;;4987183;28;20233;-66
2021/03/27 12:11:54;;;;;;;1.13;0.50;;;10.60;39.40;;;;;;4985997;28;20226;-66
2021/03/27 12:14:57;;;;;;;0.43;0.37;;;10.40;39.10;;;;;;4985192;28;20225;-67
2021/03/27 12:17:46;;;;;;;0.60;0.60;;;10.30;39.20;;;;;;4950025;28;20423;-67
2021/03/27 12:20:35;;;;;;;3.87;1.03;;;10.50;39.50;;;;;;4986470;28;20242;-67
2021/03/27 12:23:29;;;;;;;0.70;0.70;;;10.70;38.60;;;;;;4966286;28;20607;-67
2021/03/27 12:26:31;;;;;;;0.53;0.53;;;10.70;37.90;;;;;;4987505;28;20819;-67
2021/03/27 12:29:03;;;;;;;1.07;0.70;;;11.10;38.30;;;;;;4967557;28;20222;-67
2021/03/27 12:31:50;;;;;;;1.60;0.60;;;10.70;38.90;;;;;;4984926;28;20623;-67
2021/03/27 12:34:26;;;;;;;1.23;1.03;;;11.00;38.80;;;;;;4985533;28;20596;-66
2021/03/27 12:37:00;;;;;;;1.10;1.00;;;11.20;39.90;;;;;;4989798;28;20272;-67
2021/03/27 12:39:40;;;;;;;0.63;0.63;;;11.10;41.20;;;;;;4985346;28;20217;-66
2021/03/27 12:42:17;;;;;;;0.67;0.63;;;11.00;41.10;;;;;;4961025;28;20200;-66
2021/03/27 12:45:07;;;;;;;2.60;0.93;;;10.70;38.90;;;;;;4968217;28;20721;-67
2021/03/27 12:47:41;;;;;;;2.47;0.90;;;10.40;40.20;;;;;;4983490;28;20240;-67
2021/03/27 12:50:25;;;;;;;1.47;0.97;;;10.70;41.10;;;;;;4987438;28;20227;-66
2021/03/27 12:52:54;;;;;;;2.47;1.47;;;11.20;39.70;;;;;;4986045;28;20271;-66
2021/03/27 12:55:39;;;;;;;0.87;0.60;;;11.40;38.00;;;;;;4985246;28;20600;-67
2021/03/27 12:58:30;;;;;;;0.93;0.57;;;11.50;39.10;;;;;;4965396;28;20452;-66
2021/03/27 13:01:38;;;;;;;0.77;0.50;;;11.50;38.80;;;;;;4984716;28;20573;-66
2021/03/27 13:04:22;;;;;;;0.60;0.50;;;10.60;40.50;;;;;;4987834;28;20656;-67
2021/03/27 13:07:32;;;;;;;0.77;0.77;;;10.70;41.80;;;;;;4984487;28;20778;-67
2021/03/27 13:10:32;;;;;;;0.90;0.73;;;11.10;49.70;;;;;;4950237;28;20238;-67
2021/03/27 13:13:35;;;;;;;2.00;0.97;;;11.50;46.50;;;;;;4985946;28;20243;-66
2021/03/27 13:16:12;;;;;;;0.60;0.60;;;11.60;43.70;;;;;;4982896;28;20283;-66
2021/03/27 13:18:49;;;;;;;0.73;0.60;;;11.20;42.30;;;;;;4984474;28;20282;-67
2021/03/27 13:21:25;;;;;;;0.73;0.50;;;10.80;40.70;;;;;;4962215;28;20195;-67
2021/03/27 13:23:53;;;;;;;0.83;0.60;;;10.80;40.20;;;;;;4961015;28;20255;-67
2021/03/27 13:26:25;;;;;;;1.67;1.10;;;10.60;40.00;;;;;;4970458;28;20315;-67
2021/03/27 13:28:58;;;;;;;1.57;0.73;;;10.20;40.50;;;;;;4964113;28;20324;-66
2021/03/27 13:31:32;;;;;;;0.60;0.60;;;10.00;42.30;;;;;;4987447;28;20230;-66
2021/03/27 13:34:06;;;;;;;1.30;0.80;;;9.80;44.00;;;;;;4989011;28;20299;-66
2021/03/27 13:36:37;;;;;;;1.13;0.70;;;9.60;47.80;;;;;;4988396;28;20200;-67
2021/03/27 13:39:31;;;;;;;0.80;0.60;;;9.30;54.00;;;;;;4992412;28;20496;-66
2021/03/27 13:42:25;;;;;;;1.07;0.70;;;8.70;59.10;;;;;;4988181;28;20220;-67
2021/03/27 13:45:15;;;;;;;1.50;0.57;;;8.20;63.40;;;;;;4986420;28;20260;-66
2021/03/27 13:47:44;;;;;;;0.90;0.60;;;7.90;66.90;;;;;;4989040;28;20216;-66
2021/03/27 13:50:19;;;;;;;0.77;0.70;;;7.50;71.70;;;;;;4992007;28;20311;-66
2021/03/27 13:53:04;;;;;;;0.70;0.70;;;7.30;74.80;;;;;;4989025;28;20314;-66
2021/03/27 13:55:38;;;;;;;0.67;0.67;;;7.10;74.50;;;;;;4990628;28;20248;-67
2021/03/27 13:58:30;;;;;;;0.67;0.60;;;7.00;74.00;;;;;;4967246;28;20256;-67
2021/03/27 14:01:27;;;;;;;0.80;0.80;;;7.00;76.80;;;;;;4952974;28;20240;-66
2021/03/27 14:04:12;;;;;;;1.70;1.23;;;7.00;80.40;;;;;;4953945;28;20271;-66
2021/03/27 14:07:00;;;;;;;1.50;0.73;;;6.90;80.60;;;;;;4981519;28;20323;-66
2021/03/27 14:09:38;;;;;;;1.37;1.27;;;7.00;80.00;;;;;;4985557;28;20283;-66
2021/03/27 14:12:27;;;;;;;0.60;0.60;;;7.10;80.20;;;;;;4990203;28;20196;-67
2021/03/27 14:15:19;;;;;;;3.30;0.47;;;7.10;76.60;;;;;;4985925;28;20220;-67
2021/03/27 14:18:15;;;;;;;2.23;1.13;;;7.20;73.90;;;;;;4986853;28;20232;-66
2021/03/27 14:21:06;;;;;;;0.80;0.80;;;7.20;75.50;;;;;;4988687;28;20659;-67